sensor_id;sensor_type;location;lat;lon;timestamp;temperature;humidity
2220;DHT22;1116;51.502;7.414;2024-01-30T00:00:40;11.30;47.40
2220;DHT22;1116;51.502;7.414;2024-01-30T00:03:11;11.30;47.20
2220;DHT22;1116;51.502;7.414;2024-01-30T00:05:41;11.30;47.10
2220;DHT22;1116;51.502;7.414;2024-01-30T00:08:11;11.30;47.40
2220;DHT22;1116;51.502;7.414;2024-01-30T00:10:41;11.30;47.60
2220;DHT22;1116;51.502;7.414;2024-01-30T00:13:11;11.20;47.20
2220;DHT22;1116;51.502;7.414;2024-01-30T00:15:49;11.20;47.30
2220;DHT22;1116;51.502;7.414;2024-01-30T00:18:19;11.20;47.30
2220;DHT22;1116;51.502;7.414;2024-01-30T00:20:49;11.20;47.40
2220;DHT22;1116;51.502;7.414;2024-01-30T00:23:19;11.20;47.10
2220;DHT22;1116;51.502;7.414;2024-01-30T00:25:49;11.10;47.20
2220;DHT22;1116;51.502;7.414;2024-01-30T00:28:19;11.10;47.20
2220;DHT22;1116;51.502;7.414;2024-01-30T00:30:52;11.10;47.00
2220;DHT22;1116;51.502;7.414;2024-01-30T00:33:22;11.10;47.10
2220;DHT22;1116;51.502;7.414;2024-01-30T00:35:52;11.10;47.10
2220;DHT22;1116;51.502;7.414;2024-01-30T00:38:22;11.10;47.00
2220;DHT22;1116;51.502;7.414;2024-01-30T00:40:52;11.10;47.00
2220;DHT22;1116;51.502;7.414;2024-01-30T00:43:22;11.10;46.90
2220;DHT22;1116;51.502;7.414;2024-01-30T00:45:55;11.20;47.10
2220;DHT22;1116;51.502;7.414;2024-01-30T00:48:25;11.10;46.90
2220;DHT22;1116;51.502;7.414;2024-01-30T00:50:55;11.00;46.80
2220;DHT22;1116;51.502;7.414;2024-01-30T00:53:26;11.10;47.00
2220;DHT22;1116;51.502;7.414;2024-01-30T00:55:56;11.10;46.90
2220;DHT22;1116;51.502;7.414;2024-01-30T00:58:26;11.10;46.80
2220;DHT22;1116;51.502;7.414;2024-01-30T01:00:58;11.10;46.70
2220;DHT22;1116;51.502;7.414;2024-01-30T01:03:29;11.10;47.30
2220;DHT22;1116;51.502;7.414;2024-01-30T01:05:59;11.10;47.10
2220;DHT22;1116;51.502;7.414;2024-01-30T01:08:30;11.10;47.50
2220;DHT22;1116;51.502;7.414;2024-01-30T01:11:00;11.00;47.20
2220;DHT22;1116;51.502;7.414;2024-01-30T01:13:30;11.00;46.90
2220;DHT22;1116;51.502;7.414;2024-01-30T01:16:03;11.00;47.40
2220;DHT22;1116;51.502;7.414;2024-01-30T01:18:33;11.00;47.20
2220;DHT22;1116;51.502;7.414;2024-01-30T01:21:04;11.00;46.80
2220;DHT22;1116;51.502;7.414;2024-01-30T01:23:34;10.90;46.90
2220;DHT22;1116;51.502;7.414;2024-01-30T01:26:04;10.90;47.10
2220;DHT22;1116;51.502;7.414;2024-01-30T01:28:34;11.00;47.30
2220;DHT22;1116;51.502;7.414;2024-01-30T01:31:08;11.00;47.30
2220;DHT22;1116;51.502;7.414;2024-01-30T01:33:39;11.00;47.10
2220;DHT22;1116;51.502;7.414;2024-01-30T01:36:09;11.00;47.30
2220;DHT22;1116;51.502;7.414;2024-01-30T01:38:39;10.90;47.10
2220;DHT22;1116;51.502;7.414;2024-01-30T01:41:09;10.90;47.50
2220;DHT22;1116;51.502;7.414;2024-01-30T01:43:39;10.90;47.30
2220;DHT22;1116;51.502;7.414;2024-01-30T01:46:11;10.80;47.50
2220;DHT22;1116;51.502;7.414;2024-01-30T01:48:42;10.90;47.30
2220;DHT22;1116;51.502;7.414;2024-01-30T01:51:14;10.80;47.30
2220;DHT22;1116;51.502;7.414;2024-01-30T01:53:45;10.80;47.70
2220;DHT22;1116;51.502;7.414;2024-01-30T01:56:15;11.20;47.70
2220;DHT22;1116;51.502;7.414;2024-01-30T01:58:46;10.80;47.70
2220;DHT22;1116;51.502;7.414;2024-01-30T02:01:20;10.80;47.60
2220;DHT22;1116;51.502;7.414;2024-01-30T02:03:51;10.80;47.50
2220;DHT22;1116;51.502;7.414;2024-01-30T02:06:21;10.90;48.90
2220;DHT22;1116;51.502;7.414;2024-01-30T02:08:51;10.80;47.70
2220;DHT22;1116;51.502;7.414;2024-01-30T02:11:23;10.90;47.50
2220;DHT22;1116;51.502;7.414;2024-01-30T02:13:53;10.90;47.40
2220;DHT22;1116;51.502;7.414;2024-01-30T02:16:26;10.90;47.20
2220;DHT22;1116;51.502;7.414;2024-01-30T02:18:57;11.00;47.40
2220;DHT22;1116;51.502;7.414;2024-01-30T02:21:29;11.00;47.20
2220;DHT22;1116;51.502;7.414;2024-01-30T02:24:00;10.90;47.30
2220;DHT22;1116;51.502;7.414;2024-01-30T02:26:33;10.90;47.40
2220;DHT22;1116;51.502;7.414;2024-01-30T02:29:03;10.90;47.40
2220;DHT22;1116;51.502;7.414;2024-01-30T02:31:33;10.90;47.70
2220;DHT22;1116;51.502;7.414;2024-01-30T02:34:04;10.90;47.50
2220;DHT22;1116;51.502;7.414;2024-01-30T02:36:37;10.90;47.80
2220;DHT22;1116;51.502;7.414;2024-01-30T02:39:07;10.80;47.80
2220;DHT22;1116;51.502;7.414;2024-01-30T02:41:37;10.90;47.80
2220;DHT22;1116;51.502;7.414;2024-01-30T02:44:07;10.90;47.70
2220;DHT22;1116;51.502;7.414;2024-01-30T02:46:37;10.90;47.60
2220;DHT22;1116;51.502;7.414;2024-01-30T02:49:07;10.80;47.60
2220;DHT22;1116;51.502;7.414;2024-01-30T02:51:40;10.80;47.50
2220;DHT22;1116;51.502;7.414;2024-01-30T02:54:10;10.90;47.80
2220;DHT22;1116;51.502;7.414;2024-01-30T02:56:40;10.90;48.20
2220;DHT22;1116;51.502;7.414;2024-01-30T02:59:10;10.90;48.00
2220;DHT22;1116;51.502;7.414;2024-01-30T03:01:43;10.90;47.70
2220;DHT22;1116;51.502;7.414;2024-01-30T03:04:15;10.90;47.50
2220;DHT22;1116;51.502;7.414;2024-01-30T03:06:48;10.90;48.00
2220;DHT22;1116;51.502;7.414;2024-01-30T03:09:18;11.30;48.00
2220;DHT22;1116;51.502;7.414;2024-01-30T03:11:48;10.90;47.50
2220;DHT22;1116;51.502;7.414;2024-01-30T03:14:18;10.90;47.40
2220;DHT22;1116;51.502;7.414;2024-01-30T03:16:48;11.00;47.40
2220;DHT22;1116;51.502;7.414;2024-01-30T03:19:18;10.90;47.40
2220;DHT22;1116;51.502;7.414;2024-01-30T03:21:51;11.00;47.40
2220;DHT22;1116;51.502;7.414;2024-01-30T03:24:21;11.00;47.40
2220;DHT22;1116;51.502;7.414;2024-01-30T03:26:51;10.90;47.40
2220;DHT22;1116;51.502;7.414;2024-01-30T03:29:21;11.00;47.50
2220;DHT22;1116;51.502;7.414;2024-01-30T03:31:51;10.90;47.20
2220;DHT22;1116;51.502;7.414;2024-01-30T03:34:21;11.00;47.50
2220;DHT22;1116;51.502;7.414;2024-01-30T03:36:54;11.00;47.20
2220;DHT22;1116;51.502;7.414;2024-01-30T03:39:24;11.00;47.20
2220;DHT22;1116;51.502;7.414;2024-01-30T03:41:54;11.40;47.30
2220;DHT22;1116;51.502;7.414;2024-01-30T03:44:24;11.00;47.00
2220;DHT22;1116;51.502;7.414;2024-01-30T03:46:54;11.10;46.90
2220;DHT22;1116;51.502;7.414;2024-01-30T03:49:24;11.00;47.10
2220;DHT22;1116;51.502;7.414;2024-01-30T03:51:57;11.30;47.30
2220;DHT22;1116;51.502;7.414;2024-01-30T03:54:30;11.10;47.20
2220;DHT22;1116;51.502;7.414;2024-01-30T03:57:00;11.00;47.50
2220;DHT22;1116;51.502;7.414;2024-01-30T03:59:30;11.20;47.70
2220;DHT22;1116;51.502;7.414;2024-01-30T04:02:00;11.10;46.80
2220;DHT22;1116;51.502;7.414;2024-01-30T04:04:31;11.00;47.10
2220;DHT22;1116;51.502;7.414;2024-01-30T04:07:03;11.00;47.40
2220;DHT22;1116;51.502;7.414;2024-01-30T04:09:33;11.00;47.30
2220;DHT22;1116;51.502;7.414;2024-01-30T04:12:04;11.20;47.50
2220;DHT22;1116;51.502;7.414;2024-01-30T04:14:34;11.00;47.30
2220;DHT22;1116;51.502;7.414;2024-01-30T04:17:04;11.00;47.50
2220;DHT22;1116;51.502;7.414;2024-01-30T04:19:37;11.00;47.60
2220;DHT22;1116;51.502;7.414;2024-01-30T04:22:10;11.10;47.60
2220;DHT22;1116;51.502;7.414;2024-01-30T04:24:40;11.00;47.30
2220;DHT22;1116;51.502;7.414;2024-01-30T04:27:10;11.00;47.40
2220;DHT22;1116;51.502;7.414;2024-01-30T04:29:41;11.00;47.50
2220;DHT22;1116;51.502;7.414;2024-01-30T04:32:11;11.00;47.70
2220;DHT22;1116;51.502;7.414;2024-01-30T04:34:38;11.00;47.40
2220;DHT22;1116;51.502;7.414;2024-01-30T04:37:11;10.90;47.70
2220;DHT22;1116;51.502;7.414;2024-01-30T04:39:41;10.90;47.80
2220;DHT22;1116;51.502;7.414;2024-01-30T04:42:11;10.90;47.50
2220;DHT22;1116;51.502;7.414;2024-01-30T04:44:41;11.00;47.90
2220;DHT22;1116;51.502;7.414;2024-01-30T04:47:11;10.90;47.50
2220;DHT22;1116;51.502;7.414;2024-01-30T04:49:42;10.90;48.00
2220;DHT22;1116;51.502;7.414;2024-01-30T04:52:15;10.90;48.00
2220;DHT22;1116;51.502;7.414;2024-01-30T04:54:45;10.90;47.80
2220;DHT22;1116;51.502;7.414;2024-01-30T04:57:18;10.90;48.00
2220;DHT22;1116;51.502;7.414;2024-01-30T04:59:48;10.90;48.00
2220;DHT22;1116;51.502;7.414;2024-01-30T05:02:18;10.90;48.30
2220;DHT22;1116;51.502;7.414;2024-01-30T05:04:48;10.90;48.30
2220;DHT22;1116;51.502;7.414;2024-01-30T05:07:21;10.90;48.10
2220;DHT22;1116;51.502;7.414;2024-01-30T05:09:51;10.90;48.20
2220;DHT22;1116;51.502;7.414;2024-01-30T05:12:25;10.90;48.10
2220;DHT22;1116;51.502;7.414;2024-01-30T05:14:55;10.90;47.90
2220;DHT22;1116;51.502;7.414;2024-01-30T05:17:25;10.90;48.30
2220;DHT22;1116;51.502;7.414;2024-01-30T05:19:56;10.90;47.90
2220;DHT22;1116;51.502;7.414;2024-01-30T05:22:29;10.90;47.80
2220;DHT22;1116;51.502;7.414;2024-01-30T05:24:59;10.90;47.80
2220;DHT22;1116;51.502;7.414;2024-01-30T05:27:29;10.90;48.20
2220;DHT22;1116;51.502;7.414;2024-01-30T05:29:59;10.90;48.10
2220;DHT22;1116;51.502;7.414;2024-01-30T05:32:30;10.90;48.40
2220;DHT22;1116;51.502;7.414;2024-01-30T05:35:00;10.90;48.00
2220;DHT22;1116;51.502;7.414;2024-01-30T05:37:33;10.90;47.90
2220;DHT22;1116;51.502;7.414;2024-01-30T05:40:04;10.90;48.00
2220;DHT22;1116;51.502;7.414;2024-01-30T05:42:35;10.90;48.20
2220;DHT22;1116;51.502;7.414;2024-01-30T05:45:05;10.90;48.30
2220;DHT22;1116;51.502;7.414;2024-01-30T05:47:36;10.90;48.00
2220;DHT22;1116;51.502;7.414;2024-01-30T05:50:07;10.80;48.30
2220;DHT22;1116;51.502;7.414;2024-01-30T05:52:40;10.70;48.30
2220;DHT22;1116;51.502;7.414;2024-01-30T05:55:11;10.70;48.70
2220;DHT22;1116;51.502;7.414;2024-01-30T05:57:41;10.70;49.60
2220;DHT22;1116;51.502;7.414;2024-01-30T06:00:11;10.60;49.00
2220;DHT22;1116;51.502;7.414;2024-01-30T06:02:41;10.60;49.00
2220;DHT22;1116;51.502;7.414;2024-01-30T06:05:11;10.50;49.40
2220;DHT22;1116;51.502;7.414;2024-01-30T06:07:44;10.50;49.10
2220;DHT22;1116;51.502;7.414;2024-01-30T06:10:14;10.50;49.40
2220;DHT22;1116;51.502;7.414;2024-01-30T06:12:44;10.40;49.30
2220;DHT22;1116;51.502;7.414;2024-01-30T06:15:15;10.40;49.70
2220;DHT22;1116;51.502;7.414;2024-01-30T06:17:45;10.30;50.20
2220;DHT22;1116;51.502;7.414;2024-01-30T06:20:16;10.30;49.70
2220;DHT22;1116;51.502;7.414;2024-01-30T06:22:48;10.40;50.80
2220;DHT22;1116;51.502;7.414;2024-01-30T06:25:18;10.50;50.40
2220;DHT22;1116;51.502;7.414;2024-01-30T06:27:48;10.60;49.90
2220;DHT22;1116;51.502;7.414;2024-01-30T06:30:18;10.70;49.70
2220;DHT22;1116;51.502;7.414;2024-01-30T06:32:48;10.80;49.50
2220;DHT22;1116;51.502;7.414;2024-01-30T06:35:18;11.10;49.60
2220;DHT22;1116;51.502;7.414;2024-01-30T06:37:51;10.90;49.10
2220;DHT22;1116;51.502;7.414;2024-01-30T06:40:21;10.90;48.90
2220;DHT22;1116;51.502;7.414;2024-01-30T06:42:51;10.90;48.60
2220;DHT22;1116;51.502;7.414;2024-01-30T06:45:21;11.00;48.50
2220;DHT22;1116;51.502;7.414;2024-01-30T06:47:51;11.00;48.60
2220;DHT22;1116;51.502;7.414;2024-01-30T06:50:21;11.00;48.50
2220;DHT22;1116;51.502;7.414;2024-01-30T06:52:54;11.00;48.30
2220;DHT22;1116;51.502;7.414;2024-01-30T06:55:24;11.00;48.40
2220;DHT22;1116;51.502;7.414;2024-01-30T06:57:54;11.10;49.00
2220;DHT22;1116;51.502;7.414;2024-01-30T07:00:24;11.10;48.10
2220;DHT22;1116;51.502;7.414;2024-01-30T07:02:53;11.10;48.20
2220;DHT22;1116;51.502;7.414;2024-01-30T07:05:23;11.10;48.00
2220;DHT22;1116;51.502;7.414;2024-01-30T07:07:56;11.10;47.70
2220;DHT22;1116;51.502;7.414;2024-01-30T07:10:26;11.20;48.60
2220;DHT22;1116;51.502;7.414;2024-01-30T07:12:56;11.10;48.10
2220;DHT22;1116;51.502;7.414;2024-01-30T07:15:26;11.20;48.60
2220;DHT22;1116;51.502;7.414;2024-01-30T07:17:56;11.20;48.20
2220;DHT22;1116;51.502;7.414;2024-01-30T07:20:26;11.20;48.20
2220;DHT22;1116;51.502;7.414;2024-01-30T07:23:00;11.20;48.20
2220;DHT22;1116;51.502;7.414;2024-01-30T07:25:30;11.30;48.30
2220;DHT22;1116;51.502;7.414;2024-01-30T07:28:04;11.30;48.10
2220;DHT22;1116;51.502;7.414;2024-01-30T07:30:34;11.40;48.30
2220;DHT22;1116;51.502;7.414;2024-01-30T07:33:04;11.40;48.10
2220;DHT22;1116;51.502;7.414;2024-01-30T07:35:35;11.50;47.70
2220;DHT22;1116;51.502;7.414;2024-01-30T07:38:08;11.60;47.80
2220;DHT22;1116;51.502;7.414;2024-01-30T07:40:38;11.60;47.50
2220;DHT22;1116;51.502;7.414;2024-01-30T07:43:08;11.60;47.70
2220;DHT22;1116;51.502;7.414;2024-01-30T07:45:38;11.60;47.90
2220;DHT22;1116;51.502;7.414;2024-01-30T07:48:08;11.50;48.50
2220;DHT22;1116;51.502;7.414;2024-01-30T07:50:38;11.50;48.30
2220;DHT22;1116;51.502;7.414;2024-01-30T07:53:11;11.60;47.70
2220;DHT22;1116;51.502;7.414;2024-01-30T07:55:41;11.70;47.60
2220;DHT22;1116;51.502;7.414;2024-01-30T07:58:11;11.70;47.40
2220;DHT22;1116;51.502;7.414;2024-01-30T08:00:41;11.80;47.10
2220;DHT22;1116;51.502;7.414;2024-01-30T08:03:11;11.70;46.90
2220;DHT22;1116;51.502;7.414;2024-01-30T08:05:43;11.80;47.20
2220;DHT22;1116;51.502;7.414;2024-01-30T08:08:15;11.80;47.10
2220;DHT22;1116;51.502;7.414;2024-01-30T08:10:45;11.90;46.60
2220;DHT22;1116;51.502;7.414;2024-01-30T08:13:16;12.00;46.50
2220;DHT22;1116;51.502;7.414;2024-01-30T08:15:46;12.00;46.30
2220;DHT22;1116;51.502;7.414;2024-01-30T08:18:16;12.10;46.30
2220;DHT22;1116;51.502;7.414;2024-01-30T08:20:46;12.10;45.70
2220;DHT22;1116;51.502;7.414;2024-01-30T08:23:19;12.20;45.80
2220;DHT22;1116;51.502;7.414;2024-01-30T08:25:49;12.20;46.00
2220;DHT22;1116;51.502;7.414;2024-01-30T08:28:19;12.20;45.40
2220;DHT22;1116;51.502;7.414;2024-01-30T08:30:49;12.20;45.50
2220;DHT22;1116;51.502;7.414;2024-01-30T08:33:19;12.20;45.70
2220;DHT22;1116;51.502;7.414;2024-01-30T08:35:48;12.20;45.00
2220;DHT22;1116;51.502;7.414;2024-01-30T08:38:21;12.20;45.40
2220;DHT22;1116;51.502;7.414;2024-01-30T08:40:51;12.20;45.50
2220;DHT22;1116;51.502;7.414;2024-01-30T08:43:21;12.10;45.60
2220;DHT22;1116;51.502;7.414;2024-01-30T08:45:51;12.10;46.40
2220;DHT22;1116;51.502;7.414;2024-01-30T08:48:22;12.40;46.00
2220;DHT22;1116;51.502;7.414;2024-01-30T08:50:53;12.50;45.90
2220;DHT22;1116;51.502;7.414;2024-01-30T08:53:25;12.20;45.80
2220;DHT22;1116;51.502;7.414;2024-01-30T08:55:55;12.30;45.70
2220;DHT22;1116;51.502;7.414;2024-01-30T08:58:26;12.30;45.10
2220;DHT22;1116;51.502;7.414;2024-01-30T09:00:58;12.30;45.30
2220;DHT22;1116;51.502;7.414;2024-01-30T09:03:47;12.40;45.20
2220;DHT22;1116;51.502;7.414;2024-01-30T09:06:17;12.30;45.20
2220;DHT22;1116;51.502;7.414;2024-01-30T09:08:49;12.30;45.10
2220;DHT22;1116;51.502;7.414;2024-01-30T09:11:19;12.30;45.50
2220;DHT22;1116;51.502;7.414;2024-01-30T09:13:49;12.30;45.10
2220;DHT22;1116;51.502;7.414;2024-01-30T09:16:19;12.40;45.20
2220;DHT22;1116;51.502;7.414;2024-01-30T09:18:49;12.40;45.20
2220;DHT22;1116;51.502;7.414;2024-01-30T09:21:19;12.50;45.30
2220;DHT22;1116;51.502;7.414;2024-01-30T09:23:54;12.60;45.40
2220;DHT22;1116;51.502;7.414;2024-01-30T09:26:24;12.60;45.40
2220;DHT22;1116;51.502;7.414;2024-01-30T09:28:54;12.60;45.40
2220;DHT22;1116;51.502;7.414;2024-01-30T09:31:25;12.60;45.30
2220;DHT22;1116;51.502;7.414;2024-01-30T09:33:56;12.70;44.90
2220;DHT22;1116;51.502;7.414;2024-01-30T09:36:26;12.70;44.70
2220;DHT22;1116;51.502;7.414;2024-01-30T09:38:58;12.70;44.80
2220;DHT22;1116;51.502;7.414;2024-01-30T09:41:29;12.70;44.50
2220;DHT22;1116;51.502;7.414;2024-01-30T09:44:02;12.70;44.80
2220;DHT22;1116;51.502;7.414;2024-01-30T09:46:33;12.70;44.50
2220;DHT22;1116;51.502;7.414;2024-01-30T09:49:04;12.60;45.00
2220;DHT22;1116;51.502;7.414;2024-01-30T09:51:36;12.50;45.30
2220;DHT22;1116;51.502;7.414;2024-01-30T09:54:10;12.50;45.30
2220;DHT22;1116;51.502;7.414;2024-01-30T09:56:41;12.50;45.30
2220;DHT22;1116;51.502;7.414;2024-01-30T09:59:12;12.50;45.30
2220;DHT22;1116;51.502;7.414;2024-01-30T10:01:42;12.50;45.20
2220;DHT22;1116;51.502;7.414;2024-01-30T10:04:13;12.50;45.40
2220;DHT22;1116;51.502;7.414;2024-01-30T10:06:43;12.80;45.60
2220;DHT22;1116;51.502;7.414;2024-01-30T10:09:16;12.60;45.40
2220;DHT22;1116;51.502;7.414;2024-01-30T10:11:47;12.70;45.50
2220;DHT22;1116;51.502;7.414;2024-01-30T10:14:18;12.80;45.10
2220;DHT22;1116;51.502;7.414;2024-01-30T10:16:48;12.90;45.30
2220;DHT22;1116;51.502;7.414;2024-01-30T10:19:18;13.10;43.90
2220;DHT22;1116;51.502;7.414;2024-01-30T10:21:49;13.10;43.50
2220;DHT22;1116;51.502;7.414;2024-01-30T10:24:26;13.10;43.20
2220;DHT22;1116;51.502;7.414;2024-01-30T10:26:56;13.20;42.80
2220;DHT22;1116;51.502;7.414;2024-01-30T10:29:27;13.30;42.80
2220;DHT22;1116;51.502;7.414;2024-01-30T10:31:59;14.00;41.80
2220;DHT22;1116;51.502;7.414;2024-01-30T10:34:29;15.30;37.80
2220;DHT22;1116;51.502;7.414;2024-01-30T10:37:10;16.70;33.40
2220;DHT22;1116;51.502;7.414;2024-01-30T10:39:46;17.50;29.60
2220;DHT22;1116;51.502;7.414;2024-01-30T10:42:18;16.60;30.50
2220;DHT22;1116;51.502;7.414;2024-01-30T10:44:58;15.80;33.20
2220;DHT22;1116;51.502;7.414;2024-01-30T10:47:30;15.50;34.00
2220;DHT22;1116;51.502;7.414;2024-01-30T10:50:01;15.10;35.40
2220;DHT22;1116;51.502;7.414;2024-01-30T10:52:32;15.00;35.80
2220;DHT22;1116;51.502;7.414;2024-01-30T10:55:05;14.80;36.40
2220;DHT22;1116;51.502;7.414;2024-01-30T10:57:36;15.00;35.30
2220;DHT22;1116;51.502;7.414;2024-01-30T11:00:09;15.20;35.50
2220;DHT22;1116;51.502;7.414;2024-01-30T11:02:45;15.20;35.60
2220;DHT22;1116;51.502;7.414;2024-01-30T11:05:23;15.80;35.20
2220;DHT22;1116;51.502;7.414;2024-01-30T11:08:10;16.90;31.90
2220;DHT22;1116;51.502;7.414;2024-01-30T11:10:49;17.60;29.00
2220;DHT22;1116;51.502;7.414;2024-01-30T11:13:27;18.10;27.90
2220;DHT22;1116;51.502;7.414;2024-01-30T11:16:00;18.40;26.80
2220;DHT22;1116;51.502;7.414;2024-01-30T11:18:30;18.40;26.80
2220;DHT22;1116;51.502;7.414;2024-01-30T11:21:01;18.80;26.60
2220;DHT22;1116;51.502;7.414;2024-01-30T11:23:34;19.10;26.90
2220;DHT22;1116;51.502;7.414;2024-01-30T11:26:12;19.40;26.30
2220;DHT22;1116;51.502;7.414;2024-01-30T11:28:52;19.50;25.70
2220;DHT22;1116;51.502;7.414;2024-01-30T11:31:27;19.30;26.60
2220;DHT22;1116;51.502;7.414;2024-01-30T11:33:58;19.20;25.30
2220;DHT22;1116;51.502;7.414;2024-01-30T11:36:30;18.60;27.00
2220;DHT22;1116;51.502;7.414;2024-01-30T11:39:02;18.10;27.20
2220;DHT22;1116;51.502;7.414;2024-01-30T11:41:34;17.60;29.10
2220;DHT22;1116;51.502;7.414;2024-01-30T11:44:07;17.20;30.00
2220;DHT22;1116;51.502;7.414;2024-01-30T11:46:37;17.40;31.20
2220;DHT22;1116;51.502;7.414;2024-01-30T11:49:07;17.10;31.00
2220;DHT22;1116;51.502;7.414;2024-01-30T11:51:37;16.80;32.10
2220;DHT22;1116;51.502;7.414;2024-01-30T11:54:07;16.50;33.20
2220;DHT22;1116;51.502;7.414;2024-01-30T11:56:40;16.20;34.50
2220;DHT22;1116;51.502;7.414;2024-01-30T11:59:10;16.00;36.20
2220;DHT22;1116;51.502;7.414;2024-01-30T12:01:40;15.90;36.20
2220;DHT22;1116;51.502;7.414;2024-01-30T12:04:10;15.70;36.80
2220;DHT22;1116;51.502;7.414;2024-01-30T12:06:40;15.60;37.70
2220;DHT22;1116;51.502;7.414;2024-01-30T12:09:10;15.60;37.70
2220;DHT22;1116;51.502;7.414;2024-01-30T12:11:46;15.40;39.10
2220;DHT22;1116;51.502;7.414;2024-01-30T12:14:17;15.30;39.10
2220;DHT22;1116;51.502;7.414;2024-01-30T12:16:49;15.20;39.50
2220;DHT22;1116;51.502;7.414;2024-01-30T12:19:22;15.10;40.40
2220;DHT22;1116;51.502;7.414;2024-01-30T12:21:56;15.00;40.70
2220;DHT22;1116;51.502;7.414;2024-01-30T12:24:27;14.90;41.60
2220;DHT22;1116;51.502;7.414;2024-01-30T12:27:00;15.00;41.60
2220;DHT22;1116;51.502;7.414;2024-01-30T12:29:32;15.00;41.40
2220;DHT22;1116;51.502;7.414;2024-01-30T12:32:06;15.00;41.60
2220;DHT22;1116;51.502;7.414;2024-01-30T12:34:40;14.90;41.50
2220;DHT22;1116;51.502;7.414;2024-01-30T12:37:26;14.90;42.00
2220;DHT22;1116;51.502;7.414;2024-01-30T12:39:56;14.80;42.60
2220;DHT22;1116;51.502;7.414;2024-01-30T12:42:29;14.80;43.50
2220;DHT22;1116;51.502;7.414;2024-01-30T12:44:59;14.70;43.20
2220;DHT22;1116;51.502;7.414;2024-01-30T12:47:30;14.60;43.20
2220;DHT22;1116;51.502;7.414;2024-01-30T12:50:00;14.60;43.90
2220;DHT22;1116;51.502;7.414;2024-01-30T12:52:30;14.60;44.90
2220;DHT22;1116;51.502;7.414;2024-01-30T12:55:00;14.50;45.10
2220;DHT22;1116;51.502;7.414;2024-01-30T12:57:34;14.50;44.90
2220;DHT22;1116;51.502;7.414;2024-01-30T13:00:07;14.40;45.00
2220;DHT22;1116;51.502;7.414;2024-01-30T13:02:44;14.40;45.50
2220;DHT22;1116;51.502;7.414;2024-01-30T13:05:17;14.30;46.00
2220;DHT22;1116;51.502;7.414;2024-01-30T13:07:48;14.20;46.00
2220;DHT22;1116;51.502;7.414;2024-01-30T13:10:21;14.20;46.50
2220;DHT22;1116;51.502;7.414;2024-01-30T13:12:54;14.20;46.90
2220;DHT22;1116;51.502;7.414;2024-01-30T13:15:24;14.10;46.80
2220;DHT22;1116;51.502;7.414;2024-01-30T13:17:54;14.10;46.90
2220;DHT22;1116;51.502;7.414;2024-01-30T13:20:27;14.10;46.80
2220;DHT22;1116;51.502;7.414;2024-01-30T13:22:57;14.10;46.80
2220;DHT22;1116;51.502;7.414;2024-01-30T13:25:27;14.10;46.90
2220;DHT22;1116;51.502;7.414;2024-01-30T13:28:01;14.00;46.80
2220;DHT22;1116;51.502;7.414;2024-01-30T13:30:32;14.10;46.90
2220;DHT22;1116;51.502;7.414;2024-01-30T13:33:04;14.10;46.90
2220;DHT22;1116;51.502;7.414;2024-01-30T13:35:35;14.20;47.00
2220;DHT22;1116;51.502;7.414;2024-01-30T13:38:05;14.00;46.90
2220;DHT22;1116;51.502;7.414;2024-01-30T13:40:35;14.00;46.80
2220;DHT22;1116;51.502;7.414;2024-01-30T13:43:07;13.90;46.80
2220;DHT22;1116;51.502;7.414;2024-01-30T13:45:37;13.80;47.10
2220;DHT22;1116;51.502;7.414;2024-01-30T13:48:09;13.80;48.10
2220;DHT22;1116;51.502;7.414;2024-01-30T13:50:39;13.80;47.80
2220;DHT22;1116;51.502;7.414;2024-01-30T13:53:10;13.80;47.70
2220;DHT22;1116;51.502;7.414;2024-01-30T13:56:07;13.80;48.00
2220;DHT22;1116;51.502;7.414;2024-01-30T13:59:17;13.70;48.30
2220;DHT22;1116;51.502;7.414;2024-01-30T14:02:05;13.70;48.90
2220;DHT22;1116;51.502;7.414;2024-01-30T14:04:37;13.70;48.90
2220;DHT22;1116;51.502;7.414;2024-01-30T14:07:08;13.60;48.90
2220;DHT22;1116;51.502;7.414;2024-01-30T14:09:38;13.60;49.10
2220;DHT22;1116;51.502;7.414;2024-01-30T14:12:08;13.60;49.00
2220;DHT22;1116;51.502;7.414;2024-01-30T14:14:41;13.60;49.50
2220;DHT22;1116;51.502;7.414;2024-01-30T14:17:11;13.60;49.40
2220;DHT22;1116;51.502;7.414;2024-01-30T14:19:41;13.70;49.30
2220;DHT22;1116;51.502;7.414;2024-01-30T14:22:11;13.60;49.40
2220;DHT22;1116;51.502;7.414;2024-01-30T14:24:42;13.60;49.60
2220;DHT22;1116;51.502;7.414;2024-01-30T14:27:13;13.60;49.70
2220;DHT22;1116;51.502;7.414;2024-01-30T14:29:45;13.60;49.50
2220;DHT22;1116;51.502;7.414;2024-01-30T14:32:16;13.50;49.40
2220;DHT22;1116;51.502;7.414;2024-01-30T14:34:46;13.60;49.60
2220;DHT22;1116;51.502;7.414;2024-01-30T14:37:16;13.60;49.20
2220;DHT22;1116;51.502;7.414;2024-01-30T14:39:47;13.70;49.50
2220;DHT22;1116;51.502;7.414;2024-01-30T14:42:17;13.60;49.10
2220;DHT22;1116;51.502;7.414;2024-01-30T14:44:50;13.70;49.10
2220;DHT22;1116;51.502;7.414;2024-01-30T14:47:20;13.70;49.20
2220;DHT22;1116;51.502;7.414;2024-01-30T14:49:50;13.60;49.30
2220;DHT22;1116;51.502;7.414;2024-01-30T14:52:21;13.50;49.20
2220;DHT22;1116;51.502;7.414;2024-01-30T14:54:51;13.50;49.50
2220;DHT22;1116;51.502;7.414;2024-01-30T14:57:21;13.90;49.70
2220;DHT22;1116;51.502;7.414;2024-01-30T14:59:55;13.60;49.30
2220;DHT22;1116;51.502;7.414;2024-01-30T15:02:31;13.60;49.20
2220;DHT22;1116;51.502;7.414;2024-01-30T15:05:17;13.70;49.30
2220;DHT22;1116;51.502;7.414;2024-01-30T15:07:59;13.70;49.10
2220;DHT22;1116;51.502;7.414;2024-01-30T15:10:33;13.70;49.10
2220;DHT22;1116;51.502;7.414;2024-01-30T15:13:03;13.70;48.80
2220;DHT22;1116;51.502;7.414;2024-01-30T15:15:37;13.60;48.80
2220;DHT22;1116;51.502;7.414;2024-01-30T15:18:08;13.60;49.00
2220;DHT22;1116;51.502;7.414;2024-01-30T15:20:39;13.60;48.90
2220;DHT22;1116;51.502;7.414;2024-01-30T15:23:09;13.60;48.30
2220;DHT22;1116;51.502;7.414;2024-01-30T15:25:39;13.60;48.80
2220;DHT22;1116;51.502;7.414;2024-01-30T15:28:09;13.80;48.80
2220;DHT22;1116;51.502;7.414;2024-01-30T15:30:46;13.50;48.40
2220;DHT22;1116;51.502;7.414;2024-01-30T15:33:21;13.60;48.50
2220;DHT22;1116;51.502;7.414;2024-01-30T15:35:55;13.50;48.40
2220;DHT22;1116;51.502;7.414;2024-01-30T15:38:32;13.50;48.20
2220;DHT22;1116;51.502;7.414;2024-01-30T15:41:06;13.50;48.20
2220;DHT22;1116;51.502;7.414;2024-01-30T15:43:37;13.50;48.10
2220;DHT22;1116;51.502;7.414;2024-01-30T15:46:21;13.50;48.10
2220;DHT22;1116;51.502;7.414;2024-01-30T15:48:56;13.40;47.80
2220;DHT22;1116;51.502;7.414;2024-01-30T15:51:55;13.40;47.70
2220;DHT22;1116;51.502;7.414;2024-01-30T15:54:32;13.40;47.50
2220;DHT22;1116;51.502;7.414;2024-01-30T15:57:04;13.40;47.40
2220;DHT22;1116;51.502;7.414;2024-01-30T15:59:37;13.50;47.00
2220;DHT22;1116;51.502;7.414;2024-01-30T16:02:22;13.40;46.20
2220;DHT22;1116;51.502;7.414;2024-01-30T16:04:53;13.40;46.20
2220;DHT22;1116;51.502;7.414;2024-01-30T16:07:28;13.40;46.80
2220;DHT22;1116;51.502;7.414;2024-01-30T16:10:03;13.40;46.70
2220;DHT22;1116;51.502;7.414;2024-01-30T16:12:46;13.30;46.10
2220;DHT22;1116;51.502;7.414;2024-01-30T16:15:23;13.30;46.10
2220;DHT22;1116;51.502;7.414;2024-01-30T16:17:59;13.30;45.50
2220;DHT22;1116;51.502;7.414;2024-01-30T16:20:34;13.20;44.30
2220;DHT22;1116;51.502;7.414;2024-01-30T16:23:06;13.20;44.50
2220;DHT22;1116;51.502;7.414;2024-01-30T16:25:36;13.20;44.10
2220;DHT22;1116;51.502;7.414;2024-01-30T16:28:07;13.00;43.10
2220;DHT22;1116;51.502;7.414;2024-01-30T16:30:38;12.90;42.70